createdAt,value
2019-03-31T00:01:07.326Z,87.80
2019-03-31T00:03:25.399Z,87.70
2019-03-31T00:05:55.237Z,88.10
2019-03-31T00:08:25.048Z,88.00
2019-03-31T00:10:54.842Z,87.70
2019-03-31T00:13:24.658Z,87.90
2019-03-31T00:15:54.481Z,88.00
2019-03-31T00:18:24.315Z,87.90
2019-03-31T00:20:54.205Z,87.70
2019-03-31T00:23:24.014Z,87.90
2019-03-31T00:25:53.850Z,88.00
2019-03-31T00:28:23.643Z,87.70
2019-03-31T00:30:53.849Z,87.80
2019-03-31T00:33:23.729Z,87.50
2019-03-31T00:35:53.633Z,88.30
2019-03-31T00:38:23.441Z,87.60
2019-03-31T00:40:53.237Z,88.20
2019-03-31T00:43:23.045Z,88.10
2019-03-31T00:45:52.888Z,88.00
2019-03-31T00:48:22.694Z,88.30
2019-03-31T00:50:52.636Z,88.20
2019-03-31T00:53:22.497Z,88.50
2019-03-31T00:55:52.402Z,88.70
2019-03-31T00:58:22.318Z,88.60
2019-03-31T01:01:10.893Z,88.80
2019-03-31T01:03:41.809Z,88.60
2019-03-31T01:06:13.289Z,88.50
2019-03-31T01:08:45.241Z,88.50
2019-03-31T01:11:19.627Z,88.60
2019-03-31T01:13:49.503Z,88.90
2019-03-31T01:16:19.305Z,89.40
2019-03-31T01:18:49.109Z,89.60
2019-03-31T01:21:18.910Z,89.10
2019-03-31T01:23:48.870Z,89.60
2019-03-31T01:26:21.036Z,89.80
2019-03-31T01:28:51.644Z,90.00
2019-03-31T01:31:21.541Z,90.00
2019-03-31T01:33:51.544Z,90.30
2019-03-31T01:36:21.590Z,90.60
2019-03-31T01:38:51.453Z,90.70
2019-03-31T01:41:21.477Z,90.70
2019-03-31T01:43:51.347Z,90.40
2019-03-31T01:46:24.299Z,90.70
2019-03-31T01:48:54.177Z,90.70
2019-03-31T01:51:23.990Z,90.70
2019-03-31T01:53:53.826Z,90.50
2019-03-31T01:56:24.225Z,90.60
2019-03-31T01:58:54.025Z,90.60
2019-03-31T02:01:24.036Z,90.80
2019-03-31T02:03:53.834Z,90.80
2019-03-31T02:06:23.769Z,91.00
2019-03-31T02:08:53.609Z,91.10
2019-03-31T02:11:23.476Z,91.00
2019-03-31T02:13:53.282Z,91.00
2019-03-31T02:16:23.129Z,91.20
2019-03-31T02:18:52.923Z,91.40
2019-03-31T02:21:22.743Z,91.50
2019-03-31T02:23:52.557Z,91.30
2019-03-31T02:26:22.457Z,91.10
2019-03-31T02:28:52.397Z,91.10
2019-03-31T02:31:22.190Z,91.20
2019-03-31T02:33:51.996Z,91.10
2019-03-31T02:36:21.903Z,91.40
2019-03-31T02:38:51.781Z,91.30
2019-03-31T02:41:21.610Z,91.50
2019-03-31T02:43:51.411Z,91.50
2019-03-31T02:46:21.288Z,91.80
2019-03-31T02:48:51.131Z,91.60
2019-03-31T02:51:21.017Z,91.60
2019-03-31T02:53:50.894Z,91.90
2019-03-31T02:56:22.385Z,92.20
2019-03-31T02:58:54.686Z,92.20
2019-03-31T03:01:26.222Z,92.50
2019-03-31T03:03:57.926Z,92.40
2019-03-31T03:06:30.807Z,92.40
2019-03-31T03:09:02.264Z,92.50
2019-03-31T03:11:32.854Z,92.60
2019-03-31T03:14:04.733Z,92.70
2019-03-31T03:16:34.536Z,92.80
2019-03-31T03:19:04.433Z,92.80
2019-03-31T03:21:34.394Z,92.70
2019-03-31T03:24:04.198Z,92.80
2019-03-31T03:26:34.004Z,92.70
2019-03-31T03:29:03.814Z,92.50
2019-03-31T03:31:33.620Z,92.90
2019-03-31T03:34:03.511Z,92.90
2019-03-31T03:36:33.489Z,92.90
2019-03-31T03:39:05.215Z,93.00
2019-03-31T03:41:35.011Z,93.10
2019-03-31T03:44:04.922Z,93.00
2019-03-31T03:46:34.811Z,93.00
2019-03-31T03:49:05.229Z,93.30
2019-03-31T03:51:35.122Z,93.40
2019-03-31T03:54:04.926Z,93.60
2019-03-31T03:56:34.730Z,93.70
2019-03-31T03:59:04.538Z,93.60
2019-03-31T04:01:34.433Z,93.70
2019-03-31T04:04:04.234Z,93.60
2019-03-31T04:06:34.093Z,93.70
2019-03-31T04:09:06.035Z,93.70
2019-03-31T04:11:35.823Z,93.90
2019-03-31T04:14:05.919Z,93.90
2019-03-31T04:16:35.718Z,93.80
2019-03-31T04:19:05.526Z,93.90
2019-03-31T04:21:35.328Z,94.10
2019-03-31T04:24:05.123Z,94.10
2019-03-31T04:26:37.050Z,94.20
2019-03-31T04:29:06.923Z,94.20
2019-03-31T04:31:36.721Z,94.20
2019-03-31T04:34:06.791Z,94.40
2019-03-31T04:36:36.603Z,94.30
2019-03-31T04:39:08.232Z,94.40
2019-03-31T04:41:38.107Z,94.30
2019-03-31T04:44:07.910Z,94.40
2019-03-31T04:46:37.725Z,94.50
2019-03-31T04:49:07.562Z,94.40
2019-03-31T04:51:37.370Z,94.40
2019-03-31T04:54:07.166Z,94.60
2019-03-31T04:56:37.054Z,94.70
2019-03-31T04:59:06.839Z,94.50
2019-03-31T05:01:36.643Z,94.60
2019-03-31T05:04:06.510Z,94.70
2019-03-31T05:06:36.389Z,94.60
2019-03-31T05:09:07.297Z,94.60
2019-03-31T05:11:37.101Z,94.80
2019-03-31T05:14:06.918Z,94.90
2019-03-31T05:16:36.746Z,94.90
2019-03-31T05:19:06.694Z,94.90
2019-03-31T05:21:36.576Z,95.00
2019-03-31T05:24:06.449Z,95.20
2019-03-31T05:26:36.261Z,95.30
2019-03-31T05:29:06.065Z,95.50
2019-03-31T05:31:36.006Z,95.40
2019-03-31T05:34:18.376Z,95.40
2019-03-31T05:36:37.384Z,95.00
2019-03-31T05:39:07.873Z,95.30
2019-03-31T05:41:37.770Z,95.30
2019-03-31T05:44:07.594Z,95.40
2019-03-31T05:46:37.402Z,95.20
2019-03-31T05:49:07.221Z,95.20
2019-03-31T05:51:37.969Z,95.30
2019-03-31T05:54:07.818Z,95.20
2019-03-31T05:56:37.645Z,95.20
2019-03-31T05:59:07.482Z,95.30
2019-03-31T06:01:37.281Z,95.20
2019-03-31T06:04:07.093Z,95.10
2019-03-31T06:06:37.256Z,95.10
2019-03-31T06:09:07.781Z,94.90
2019-03-31T06:11:37.595Z,94.80
2019-03-31T06:14:07.411Z,94.60
2019-03-31T06:16:37.206Z,94.50
2019-03-31T06:19:07.049Z,94.30
2019-03-31T06:21:36.854Z,94.20
2019-03-31T06:24:06.653Z,94.20
2019-03-31T06:26:36.503Z,94.00
2019-03-31T06:29:06.294Z,93.80
2019-03-31T06:31:36.101Z,93.60
2019-03-31T06:34:06.073Z,93.20
2019-03-31T06:36:35.881Z,93.00
2019-03-31T06:39:07.198Z,92.90
2019-03-31T06:41:37.025Z,92.40
2019-03-31T06:44:06.818Z,92.00
2019-03-31T06:46:36.623Z,91.80
2019-03-31T06:49:06.507Z,91.60
2019-03-31T06:51:36.301Z,91.40
2019-03-31T06:54:06.236Z,91.20
2019-03-31T06:56:36.030Z,90.90
2019-03-31T06:59:05.855Z,90.90
2019-03-31T07:01:35.642Z,90.70
2019-03-31T07:04:05.542Z,90.50
2019-03-31T07:06:35.357Z,90.30
2019-03-31T07:09:07.026Z,90.10
2019-03-31T07:11:36.842Z,90.20
2019-03-31T07:14:06.642Z,89.50
2019-03-31T07:16:36.492Z,89.10
2019-03-31T07:19:06.297Z,89.10
2019-03-31T07:21:36.157Z,88.80
2019-03-31T07:24:05.983Z,88.70
2019-03-31T07:26:35.839Z,88.40
2019-03-31T07:29:05.864Z,88.30
2019-03-31T07:31:35.715Z,88.00
2019-03-31T07:34:05.557Z,87.80
2019-03-31T07:36:35.353Z,87.30
2019-03-31T07:39:06.832Z,87.20
2019-03-31T07:41:37.218Z,87.10
2019-03-31T07:44:07.074Z,86.70
2019-03-31T07:46:36.873Z,86.50
2019-03-31T07:49:07.170Z,86.20
2019-03-31T07:51:37.672Z,85.90
2019-03-31T07:54:07.618Z,85.60
2019-03-31T07:56:37.415Z,85.40
2019-03-31T07:59:07.221Z,85.20
2019-03-31T08:01:37.058Z,84.90
2019-03-31T08:04:06.900Z,84.50
2019-03-31T08:06:36.862Z,84.10
2019-03-31T08:09:07.962Z,83.80
2019-03-31T08:11:37.763Z,83.90
2019-03-31T08:14:07.648Z,83.50
2019-03-31T08:16:37.452Z,83.20
2019-03-31T08:19:07.322Z,83.00
2019-03-31T08:21:37.133Z,83.00
2019-03-31T08:24:06.990Z,82.50
2019-03-31T08:26:36.858Z,82.20
2019-03-31T08:29:06.681Z,82.10
2019-03-31T08:31:36.489Z,81.70
2019-03-31T08:34:06.293Z,81.70
2019-03-31T08:36:36.098Z,81.70
2019-03-31T08:39:08.681Z,81.10
2019-03-31T08:41:38.569Z,81.00
2019-03-31T08:44:08.374Z,80.70
2019-03-31T08:46:38.306Z,80.70
2019-03-31T08:49:08.117Z,80.10
2019-03-31T08:51:37.966Z,80.30
2019-03-31T08:54:07.831Z,79.40
2019-03-31T08:56:37.658Z,79.10
2019-03-31T08:59:07.514Z,78.50
2019-03-31T09:01:37.315Z,77.60
2019-03-31T09:04:07.154Z,76.40
2019-03-31T09:06:36.989Z,75.80
2019-03-31T09:09:08.920Z,74.90
2019-03-31T09:11:38.733Z,72.70
2019-03-31T09:14:08.541Z,56.00
2019-03-31T09:16:38.357Z,41.10
2019-03-31T09:19:08.149Z,30.50
2019-03-31T09:21:38.053Z,27.40
2019-03-31T09:24:07.855Z,23.70
2019-03-31T09:26:37.675Z,21.70
2019-03-31T09:29:07.569Z,21.20
2019-03-31T09:31:37.423Z,20.60
2019-03-31T09:34:07.234Z,20.20
2019-03-31T09:36:37.032Z,19.00
2019-03-31T09:39:07.330Z,18.90
2019-03-31T09:41:37.126Z,17.60
2019-03-31T09:44:06.962Z,17.60
2019-03-31T09:46:36.797Z,17.80
2019-03-31T09:49:06.601Z,17.50
2019-03-31T09:51:36.415Z,16.80
2019-03-31T09:54:06.323Z,16.50
2019-03-31T09:56:36.153Z,16.60
2019-03-31T09:59:05.970Z,16.10
2019-03-31T10:01:35.838Z,16.00
2019-03-31T10:04:05.658Z,16.20
2019-03-31T10:06:35.604Z,16.30
2019-03-31T10:09:07.452Z,16.00
2019-03-31T10:11:37.333Z,16.60
2019-03-31T10:14:07.209Z,16.20
2019-03-31T10:16:37.105Z,16.40
2019-03-31T10:19:06.977Z,16.70
2019-03-31T10:21:36.769Z,17.50
2019-03-31T10:24:06.686Z,17.50
2019-03-31T10:26:36.581Z,17.80
2019-03-31T10:29:06.431Z,17.20
2019-03-31T10:31:36.305Z,16.90
2019-03-31T10:34:06.422Z,16.90
2019-03-31T10:36:44.454Z,16.60
2019-03-31T10:39:09.638Z,16.70
2019-03-31T10:41:39.681Z,17.00
2019-03-31T10:44:09.666Z,17.80
2019-03-31T10:46:39.563Z,19.00
2019-03-31T10:49:09.496Z,19.60
2019-03-31T10:51:39.497Z,19.70
2019-03-31T10:54:09.333Z,21.40
2019-03-31T10:56:39.150Z,23.80
2019-03-31T10:59:08.992Z,25.80
2019-03-31T11:01:38.877Z,27.20
2019-03-31T11:04:08.698Z,28.90
2019-03-31T11:06:38.566Z,29.70
2019-03-31T11:09:09.283Z,31.10
2019-03-31T11:11:39.263Z,32.00
2019-03-31T11:14:09.173Z,31.90
2019-03-31T11:16:38.984Z,32.20
2019-03-31T11:19:08.815Z,32.50
2019-03-31T11:21:43.510Z,33.50
2019-03-31T11:24:13.315Z,34.00
2019-03-31T11:26:43.113Z,34.10
2019-03-31T11:29:12.992Z,35.10
2019-03-31T11:31:42.875Z,35.70
2019-03-31T11:34:12.677Z,36.20
2019-03-31T11:36:42.566Z,35.20
2019-03-31T11:39:12.381Z,35.70
2019-03-31T11:41:42.179Z,36.00
2019-03-31T11:44:12.015Z,36.20
2019-03-31T11:46:41.890Z,35.30
2019-03-31T11:49:11.722Z,35.40
2019-03-31T11:51:41.585Z,35.60
2019-03-31T11:54:11.388Z,36.00
2019-03-31T11:56:41.193Z,36.40
2019-03-31T11:59:11.037Z,37.00
2019-03-31T12:01:40.881Z,37.00
2019-03-31T12:04:10.710Z,37.50
2019-03-31T12:06:40.669Z,37.60
2019-03-31T12:09:10.491Z,37.30
2019-03-31T12:11:40.310Z,37.40
2019-03-31T12:14:10.179Z,37.80
2019-03-31T12:16:39.986Z,38.10
2019-03-31T12:19:09.812Z,38.30
2019-03-31T12:21:39.709Z,38.10
2019-03-31T12:24:09.529Z,38.90
2019-03-31T12:26:39.337Z,38.00
2019-03-31T12:29:09.162Z,37.80
2019-03-31T12:31:39.106Z,38.10
2019-03-31T12:34:08.945Z,38.60
2019-03-31T12:36:38.750Z,38.80
2019-03-31T12:39:10.965Z,38.60
2019-03-31T12:41:40.798Z,39.10
2019-03-31T12:44:10.609Z,38.90
2019-03-31T12:46:40.421Z,39.10
2019-03-31T12:49:10.266Z,39.10
2019-03-31T12:51:40.083Z,39.30
2019-03-31T12:54:09.890Z,39.40
2019-03-31T12:56:39.701Z,39.50
2019-03-31T12:59:09.507Z,39.80
2019-03-31T13:01:41.336Z,40.00
2019-03-31T13:04:11.174Z,40.50
2019-03-31T13:06:40.990Z,41.30
2019-03-31T13:09:10.808Z,41.50
2019-03-31T13:11:40.638Z,42.10
2019-03-31T13:14:10.446Z,42.40
2019-03-31T13:16:40.245Z,42.50
2019-03-31T13:19:10.065Z,42.50
2019-03-31T13:21:39.877Z,42.50
2019-03-31T13:24:09.733Z,41.20
2019-03-31T13:26:39.554Z,40.40
2019-03-31T13:29:09.346Z,40.60
2019-03-31T13:31:45.313Z,41.50
2019-03-31T13:34:15.135Z,42.50
2019-03-31T13:36:44.949Z,41.70
2019-03-31T13:39:14.847Z,41.20
2019-03-31T13:41:47.128Z,39.60
2019-03-31T13:44:16.642Z,38.80
2019-03-31T13:46:46.490Z,38.80
2019-03-31T13:49:16.290Z,39.70
2019-03-31T13:51:46.094Z,40.60
2019-03-31T13:54:15.977Z,40.60
2019-03-31T13:56:48.746Z,40.90
2019-03-31T13:59:17.345Z,41.10
2019-03-31T14:01:47.291Z,41.40
2019-03-31T14:04:17.101Z,40.10
2019-03-31T14:06:46.999Z,39.30
2019-03-31T14:09:16.814Z,37.80
2019-03-31T14:11:48.547Z,37.50
2019-03-31T14:14:18.228Z,37.30
2019-03-31T14:16:48.057Z,38.10
2019-03-31T14:19:17.858Z,38.60
2019-03-31T14:21:47.674Z,38.90
2019-03-31T14:24:17.586Z,39.20
2019-03-31T14:26:47.878Z,39.70
2019-03-31T14:29:17.866Z,40.60
2019-03-31T14:31:47.741Z,41.40
2019-03-31T14:34:17.582Z,42.50
2019-03-31T14:36:47.471Z,43.50
2019-03-31T14:39:17.370Z,44.30
2019-03-31T14:41:47.218Z,44.70
2019-03-31T14:44:17.141Z,44.30
2019-03-31T14:46:46.986Z,44.50
2019-03-31T14:49:16.843Z,45.00
2019-03-31T14:51:49.135Z,44.90
2019-03-31T14:54:18.958Z,44.80
2019-03-31T14:56:48.911Z,44.40
2019-03-31T14:59:18.726Z,44.50
2019-03-31T15:01:48.561Z,44.60
2019-03-31T15:04:18.455Z,45.10
2019-03-31T15:06:48.356Z,45.80
2019-03-31T15:09:18.185Z,46.70
2019-03-31T15:11:48.081Z,47.10
2019-03-31T15:14:17.978Z,48.20
2019-03-31T15:16:48.519Z,48.80
2019-03-31T15:19:18.681Z,48.90
2019-03-31T15:21:48.518Z,49.30
2019-03-31T15:24:18.329Z,49.40
2019-03-31T15:26:48.154Z,49.50
2019-03-31T15:29:17.985Z,49.50
2019-03-31T15:31:47.790Z,49.20
2019-03-31T15:34:17.697Z,49.50
2019-03-31T15:36:47.534Z,49.60
2019-03-31T15:39:19.791Z,49.70
2019-03-31T15:41:49.711Z,50.00
2019-03-31T15:44:19.522Z,50.30
2019-03-31T15:46:49.326Z,50.30
2019-03-31T15:49:19.138Z,50.40
2019-03-31T15:51:48.971Z,50.00
2019-03-31T15:54:18.805Z,50.00
2019-03-31T15:56:48.689Z,50.00
2019-03-31T15:59:18.548Z,49.80
2019-03-31T16:01:48.341Z,49.80
2019-03-31T16:04:18.283Z,50.00
2019-03-31T16:06:48.149Z,49.80
2019-03-31T16:09:23.629Z,50.30
2019-03-31T16:11:54.033Z,50.00
2019-03-31T16:14:19.737Z,50.20
2019-03-31T16:16:49.007Z,50.70
2019-03-31T16:19:18.313Z,51.70
2019-03-31T16:21:47.602Z,51.00
2019-03-31T16:24:18.526Z,51.70
2019-03-31T16:26:47.802Z,52.60
2019-03-31T16:29:18.614Z,53.00
2019-03-31T16:31:47.902Z,53.50
2019-03-31T16:34:17.278Z,54.10
2019-03-31T16:36:46.598Z,54.80
2019-03-31T16:39:15.933Z,55.50
2019-03-31T16:41:46.504Z,55.60
2019-03-31T16:44:15.798Z,55.60
2019-03-31T16:46:45.102Z,55.80
2019-03-31T16:49:14.580Z,56.30
2019-03-31T16:51:43.909Z,56.30
2019-03-31T16:54:13.190Z,56.70
2019-03-31T16:56:46.677Z,57.10
2019-03-31T16:59:15.963Z,56.90
2019-03-31T17:01:45.319Z,57.40
2019-03-31T17:04:14.610Z,57.70
2019-03-31T17:06:43.997Z,57.90
2019-03-31T17:09:13.268Z,58.40
2019-03-31T17:11:42.644Z,58.90
2019-03-31T17:14:12.090Z,59.40
2019-03-31T17:16:41.378Z,60.20
2019-03-31T17:19:10.662Z,60.70
2019-03-31T17:21:39.948Z,61.70
2019-03-31T17:24:09.262Z,62.70
2019-03-31T17:26:38.530Z,63.70
2019-03-31T17:29:07.887Z,64.00
2019-03-31T17:31:37.164Z,66.70
2019-03-31T17:34:06.801Z,69.20
2019-03-31T17:36:37.274Z,70.70
2019-03-31T17:39:08.266Z,72.20
2019-03-31T17:41:37.553Z,75.00
2019-03-31T17:44:06.834Z,76.60
2019-03-31T17:46:36.124Z,79.10
2019-03-31T17:49:05.409Z,79.90
2019-03-31T17:51:34.708Z,81.70
2019-03-31T17:54:06.200Z,82.10
2019-03-31T17:56:35.019Z,83.90
2019-03-31T17:59:04.313Z,84.10
2019-03-31T18:01:33.582Z,84.80
2019-03-31T18:04:02.866Z,86.10
2019-03-31T18:06:32.204Z,86.40
2019-03-31T18:09:01.462Z,87.50
2019-03-31T18:11:30.759Z,87.80
2019-03-31T18:14:00.106Z,88.80
2019-03-31T18:16:29.377Z,88.60
2019-03-31T18:18:58.679Z,90.20
2019-03-31T18:21:27.961Z,89.90
2019-03-31T18:23:57.342Z,90.10
2019-03-31T18:26:26.732Z,90.20
2019-03-31T18:28:56.058Z,89.90
2019-03-31T18:31:25.417Z,90.40
2019-03-31T18:33:54.939Z,90.60
2019-03-31T18:36:35.954Z,90.60
2019-03-31T18:38:55.264Z,90.60
2019-03-31T18:41:24.606Z,91.00
2019-03-31T18:43:53.914Z,90.80
2019-03-31T18:46:23.191Z,90.90
2019-03-31T18:48:52.471Z,90.60
2019-03-31T18:51:21.754Z,90.50
2019-03-31T18:54:08.618Z,90.40
2019-03-31T18:56:52.307Z,90.50
2019-03-31T18:59:46.346Z,90.30
2019-03-31T19:02:25.075Z,90.50
2019-03-31T19:05:18.398Z,90.00
2019-03-31T19:08:06.654Z,90.00
2019-03-31T19:10:49.951Z,90.30
2019-03-31T19:13:38.950Z,90.20
2019-03-31T19:16:33.485Z,90.10
2019-03-31T19:19:25.574Z,90.30
2019-03-31T19:22:04.000Z,90.60
2019-03-31T19:24:46.077Z,90.60
2019-03-31T19:27:29.649Z,90.40
2019-03-31T19:30:20.832Z,90.50
2019-03-31T19:33:27.689Z,90.70
2019-03-31T19:36:15.914Z,90.80
2019-03-31T19:38:58.298Z,90.60
2019-03-31T19:41:45.142Z,90.90
2019-03-31T19:44:27.354Z,90.50
2019-03-31T19:47:05.910Z,90.70
2019-03-31T19:49:59.933Z,90.90
2019-03-31T19:52:42.969Z,90.90
2019-03-31T19:55:30.790Z,91.10
2019-03-31T19:58:21.724Z,91.30
2019-03-31T20:01:15.917Z,91.20
2019-03-31T20:04:10.257Z,91.10
2019-03-31T20:07:01.471Z,91.20
2019-03-31T20:09:49.758Z,91.50
2019-03-31T20:12:33.092Z,91.50
2019-03-31T20:15:17.890Z,91.20
2019-03-31T20:17:57.702Z,91.70
2019-03-31T20:20:48.717Z,91.70
2019-03-31T20:23:45.956Z,91.80
2019-03-31T20:26:32.809Z,91.90
2019-03-31T20:29:18.329Z,92.10
2019-03-31T20:32:12.434Z,92.20
2019-03-31T20:35:15.766Z,92.30
2019-03-31T20:37:59.427Z,92.30
2019-03-31T20:40:45.971Z,92.30
2019-03-31T20:43:34.182Z,92.60
2019-03-31T20:46:04.503Z,92.60
2019-03-31T20:48:34.011Z,92.50
2019-03-31T20:51:03.289Z,92.40
2019-03-31T20:53:32.661Z,92.30
2019-03-31T20:56:02.018Z,92.20
2019-03-31T20:58:31.326Z,92.60
2019-03-31T21:01:00.805Z,92.70
2019-03-31T21:03:30.242Z,92.80
2019-03-31T21:05:59.681Z,92.90
2019-03-31T21:08:28.971Z,92.80
2019-03-31T21:10:58.399Z,92.70
2019-03-31T21:13:27.682Z,92.70
2019-03-31T21:15:56.982Z,92.60
2019-03-31T21:18:26.383Z,92.70
2019-03-31T21:20:55.685Z,92.90
2019-03-31T21:23:24.977Z,92.80
2019-03-31T21:25:54.294Z,93.20
2019-03-31T21:28:23.557Z,93.00
2019-03-31T21:30:52.906Z,93.30
2019-03-31T21:33:22.206Z,93.30
2019-03-31T21:35:51.511Z,93.40
2019-03-31T21:38:20.766Z,93.30
2019-03-31T21:40:50.118Z,93.50
2019-03-31T21:43:19.438Z,93.60
2019-03-31T21:45:48.729Z,93.70
2019-03-31T21:48:18.095Z,93.90
2019-03-31T21:50:47.462Z,93.90
2019-03-31T21:53:16.798Z,94.10
2019-03-31T21:55:46.086Z,94.30
2019-03-31T21:58:15.358Z,94.50
2019-03-31T22:00:53.172Z,94.70
2019-03-31T22:03:22.478Z,94.60
2019-03-31T22:05:51.936Z,94.80
2019-03-31T22:08:21.258Z,94.60
2019-03-31T22:10:50.593Z,94.90
2019-03-31T22:13:19.881Z,94.70
2019-03-31T22:15:49.145Z,94.70
2019-03-31T22:18:20.831Z,94.60
2019-03-31T22:20:50.112Z,94.50
2019-03-31T22:23:19.401Z,94.50
2019-03-31T22:25:48.730Z,94.20
2019-03-31T22:28:18.074Z,94.20
2019-03-31T22:30:47.337Z,94.10
2019-03-31T22:33:16.611Z,94.00
2019-03-31T22:36:04.853Z,93.90
2019-03-31T22:38:34.121Z,93.90
2019-03-31T22:41:05.770Z,93.90
2019-03-31T22:43:35.068Z,93.60
2019-03-31T22:46:04.364Z,93.70
2019-03-31T22:48:33.707Z,93.80
2019-03-31T22:51:03.035Z,93.80
2019-03-31T22:53:32.472Z,93.70
2019-03-31T22:56:01.814Z,93.70
2019-03-31T22:58:31.086Z,93.70
2019-03-31T23:01:00.369Z,93.40
2019-03-31T23:03:29.645Z,93.30
2019-03-31T23:05:58.971Z,93.40
2019-03-31T23:08:28.217Z,93.40
2019-03-31T23:10:57.474Z,93.30
2019-03-31T23:13:26.797Z,93.30
2019-03-31T23:15:56.049Z,93.30
2019-03-31T23:18:25.314Z,93.10
2019-03-31T23:20:54.650Z,93.00
2019-03-31T23:23:23.989Z,92.80
2019-03-31T23:25:53.597Z,92.70
2019-03-31T23:28:22.965Z,92.50
2019-03-31T23:30:52.250Z,92.50
2019-03-31T23:33:21.518Z,92.40
2019-03-31T23:35:50.808Z,92.20
2019-03-31T23:38:20.088Z,92.30
2019-03-31T23:40:49.344Z,92.40
2019-03-31T23:43:18.698Z,92.50
2019-03-31T23:45:48.034Z,92.50
2019-03-31T23:48:17.285Z,92.30
2019-03-31T23:50:46.553Z,92.00
2019-03-31T23:53:15.809Z,92.30
2019-03-31T23:55:45.095Z,92.40
2019-03-31T23:58:14.446Z,92.30
